This is the latest recevied weather packets stored in our database for station/object KK7RJD. If no packets are shown the sender has not sent any weather packets the latest 10 day(s).
| Time | Temp. | Humidity | Pressure | Rain* | Wind** | Luminosity | Snow |
|---|---|---|---|---|---|---|---|
| 1777751030 | 22.78° C | 18% | 1016.6 hPa | 0 mm | - | 793 W/m² | - |
| 1777750725 | 22.78° C | 18% | 1016.9 hPa | 0 mm | - | 930 W/m² | - |
| 1777750423 | 21.67° C | 19% | 1016.7 hPa | 0 mm | - | 942 W/m² | - |
| 1777750118 | 21.67° C | 19% | 1016.8 hPa | 0 mm | - | 737 W/m² | - |
| 1777749816 | 21.67° C | 19% | 1016.9 hPa | 0 mm | - | 870 W/m² | - |
| 1777749513 | 21.67° C | 19% | 1017 hPa | 0 mm | - | 841 W/m² | - |
| 1777749211 | 21.67° C | 19% | 1016.9 hPa | 0 mm | - | 870 W/m² | - |
| 1777748908 | 21.67° C | 20% | 1017.1 hPa | 0 mm | - | 781 W/m² | - |
| 1777748605 | 21.11° C | 21% | 1017.3 hPa | 0 mm | - | 826 W/m² | - |
| 1777748300 | 21.67° C | 17% | 1017.5 hPa | 0 mm | - | 766 W/m² | - |
| 1777747997 | 21.11° C | 18% | 1017.5 hPa | 0 mm | - | 758 W/m² | - |
| 1777747694 | 21.11° C | 19% | 1017.5 hPa | 0 mm | - | 804 W/m² | - |
| 1777747389 | 20.56° C | 20% | 1017.6 hPa | 0 mm | - | 830 W/m² | - |
| 1777747086 | 21.67° C | 19% | 1017.8 hPa | 0 mm | - | 822 W/m² | - |
| 1777746782 | 21.11° C | 22% | 1017.8 hPa | 0 mm | - | 924 W/m² | - |
| 1777746477 | 20.56° C | 22% | 1017.9 hPa | 0 mm | - | 939 W/m² | - |
| 1777746173 | 20° C | 23% | 1018.1 hPa | 0 mm | - | 899 W/m² | - |
| 1777745870 | 20° C | 21% | 1018.1 hPa | 0 mm | - | 896 W/m² | - |
| 1777745569 | 20° C | 22% | 1018.1 hPa | 0 mm | - | 794 W/m² | - |
| 1777745266 | 20° C | 21% | 1017.9 hPa | 0 mm | - | 746 W/m² | - |
| 1777744964 | 19.44° C | 22% | 1018.1 hPa | 0 mm | - | 694 W/m² | - |
| 1777744663 | 19.44° C | 23% | 1018.3 hPa | 0 mm | - | 649 W/m² | - |
| 1777744358 | 18.89° C | 23% | 1018.4 hPa | 0 mm | - | 711 W/m² | - |
| 1777744055 | 18.89° C | 23% | 1018.5 hPa | 0 mm | - | 715 W/m² | - |
| 1777743753 | 18.89° C | 24% | 1018.5 hPa | 0 mm | - | 722 W/m² | - |
* Rain latest hour (hover to see other rain measurements)
** Current wind speed in m/s (hover to see current wind gust speed)